sensor_id;sensor_type;location;lat;lon;timestamp;pressure;altitude;pressure_sealevel;temperature;humidity
54546;BME280;40444;45.184;9.850;2023-04-28T19:39:03;100843.03;;;18.30;81.00
54546;BME280;40444;45.184;9.850;2023-04-28T19:41:34;100844.22;;;18.35;80.86
54546;BME280;40444;45.184;9.850;2023-04-28T19:44:02;100848.69;;;18.43;80.86
54546;BME280;40444;45.184;9.850;2023-04-28T19:46:31;100847.16;;;18.49;80.38
54546;BME280;40444;45.184;9.850;2023-04-28T19:48:59;100847.59;;;18.52;79.90
54546;BME280;40444;45.184;9.850;2023-04-28T19:51:28;100846.06;;;18.58;79.31
54546;BME280;40444;45.184;9.850;2023-04-28T19:53:56;100849.88;;;18.63;79.30
54546;BME280;40444;45.184;9.850;2023-04-28T19:56:25;100844.28;;;18.65;79.37
54546;BME280;40444;45.184;9.850;2023-04-28T19:58:53;100858.50;;;18.67;79.70
54546;BME280;40444;45.184;9.850;2023-04-28T20:01:22;100864.09;;;18.65;79.83
54546;BME280;40444;45.184;9.850;2023-04-28T20:03:50;100862.63;;;18.63;79.59
54546;BME280;40444;45.184;9.850;2023-04-28T20:06:19;100852.31;;;18.58;79.50
54546;BME280;40444;45.184;9.850;2023-04-28T20:08:47;100860.81;;;18.55;79.76
54546;BME280;40444;45.184;9.850;2023-04-28T20:11:16;100859.28;;;18.53;79.90
54546;BME280;40444;45.184;9.850;2023-04-28T20:13:44;100865.13;;;18.50;80.03
54546;BME280;40444;45.184;9.850;2023-04-28T20:16:12;100860.03;;;18.47;80.11
54546;BME280;40444;45.184;9.850;2023-04-28T20:18:41;100857.53;;;18.45;80.90
54546;BME280;40444;45.184;9.850;2023-04-28T20:21:09;100844.50;;;18.40;81.11
54546;BME280;40444;45.184;9.850;2023-04-28T20:23:37;100842.81;;;18.39;81.97
54546;BME280;40444;45.184;9.850;2023-04-28T20:26:11;100837.56;;;18.38;81.99
54546;BME280;40444;45.184;9.850;2023-04-28T20:28:42;100844.22;;;18.35;81.95
54546;BME280;40444;45.184;9.850;2023-04-28T20:31:10;100852.69;;;18.32;81.96
54546;BME280;40444;45.184;9.850;2023-04-28T20:33:38;100870.38;;;18.28;81.67
54546;BME280;40444;45.184;9.850;2023-04-28T20:36:07;100865.47;;;18.24;81.92
54546;BME280;40444;45.184;9.850;2023-04-28T20:38:36;100851.78;;;18.17;82.18
54546;BME280;40444;45.184;9.850;2023-04-28T20:41:04;100846.44;;;18.09;82.59
54546;BME280;40444;45.184;9.850;2023-04-28T20:43:35;100849.50;;;18.06;82.89
54546;BME280;40444;45.184;9.850;2023-04-28T20:46:08;100856.50;;;18.00;83.53
54546;BME280;40444;45.184;9.850;2023-04-28T20:48:40;100857.59;;;17.91;82.98
54546;BME280;40444;45.184;9.850;2023-04-28T20:51:09;100862.69;;;17.86;83.09
54546;BME280;40444;45.184;9.850;2023-04-28T20:53:40;100866.78;;;17.82;83.51
54546;BME280;40444;45.184;9.850;2023-04-28T20:56:09;100867.31;;;17.77;83.96
54546;BME280;40444;45.184;9.850;2023-04-28T20:58:37;100858.81;;;17.72;83.46
54546;BME280;40444;45.184;9.850;2023-04-28T21:01:08;100858.34;;;17.68;83.38
54546;BME280;40444;45.184;9.850;2023-04-28T21:03:37;100857.03;;;17.64;84.00
54546;BME280;40444;45.184;9.850;2023-04-28T21:06:05;100861.09;;;17.60;84.60
54546;BME280;40444;45.184;9.850;2023-04-28T21:08:33;100855.19;;;17.57;84.76
54546;BME280;40444;45.184;9.850;2023-04-28T21:11:01;100864.50;;;17.54;85.08
54546;BME280;40444;45.184;9.850;2023-04-28T21:13:30;100856.75;;;17.51;84.46
54546;BME280;40444;45.184;9.850;2023-04-28T21:15:58;100869.59;;;17.49;84.96
54546;BME280;40444;45.184;9.850;2023-04-28T21:18:27;100871.16;;;17.43;85.26
54546;BME280;40444;45.184;9.850;2023-04-28T21:20:55;100873.03;;;17.43;85.63
54546;BME280;40444;45.184;9.850;2023-04-28T21:23:24;100875.94;;;17.41;86.47
54546;BME280;40444;45.184;9.850;2023-04-28T21:25:52;100886.06;;;17.39;85.89
54546;BME280;40444;45.184;9.850;2023-04-28T21:28:20;100885.03;;;17.40;87.03
54546;BME280;40444;45.184;9.850;2023-04-28T21:30:50;100878.28;;;17.36;86.71
54546;BME280;40444;45.184;9.850;2023-04-28T21:33:20;100879.16;;;17.37;86.42
54546;BME280;40444;45.184;9.850;2023-04-28T21:35:49;100883.69;;;17.36;86.19
54546;BME280;40444;45.184;9.850;2023-04-28T21:38:18;100878.66;;;17.33;86.00
54546;BME280;40444;45.184;9.850;2023-04-28T21:40:47;100882.22;;;17.34;86.55
54546;BME280;40444;45.184;9.850;2023-04-28T21:43:16;100874.41;;;17.31;86.92
54546;BME280;40444;45.184;9.850;2023-04-28T21:45:44;100876.28;;;17.30;86.60
54546;BME280;40444;45.184;9.850;2023-04-28T21:48:12;100879.19;;;17.29;87.56
54546;BME280;40444;45.184;9.850;2023-04-28T21:50:41;100876.81;;;17.26;87.82
54546;BME280;40444;45.184;9.850;2023-04-28T21:53:10;100875.47;;;17.13;88.20
54546;BME280;40444;45.184;9.850;2023-04-28T21:55:38;100872.28;;;17.10;88.52
54546;BME280;40444;45.184;9.850;2023-04-28T21:58:06;100872.63;;;17.07;88.22
54546;BME280;40444;45.184;9.850;2023-04-28T22:00:42;100883.63;;;17.05;88.50
54546;BME280;40444;45.184;9.850;2023-04-28T22:03:11;100889.72;;;17.07;88.97
54546;BME280;40444;45.184;9.850;2023-04-28T22:05:45;100887.53;;;17.03;89.50
54546;BME280;40444;45.184;9.850;2023-04-28T22:08:13;100890.25;;;16.95;89.29
54546;BME280;40444;45.184;9.850;2023-04-28T22:10:43;100895.34;;;16.89;89.25
54546;BME280;40444;45.184;9.850;2023-04-28T22:13:14;100897.72;;;16.84;90.01
54546;BME280;40444;45.184;9.850;2023-04-28T22:15:43;100900.09;;;16.79;89.77
54546;BME280;40444;45.184;9.850;2023-04-28T22:18:14;100903.13;;;16.76;90.05
54546;BME280;40444;45.184;9.850;2023-04-28T22:20:44;100899.75;;;16.74;89.78
54546;BME280;40444;45.184;9.850;2023-04-28T22:23:13;100898.53;;;16.68;89.92
54546;BME280;40444;45.184;9.850;2023-04-28T22:25:41;100904.63;;;16.62;90.25
54546;BME280;40444;45.184;9.850;2023-04-28T22:28:10;100913.25;;;16.58;89.75
54546;BME280;40444;45.184;9.850;2023-04-28T22:30:41;100908.88;;;16.49;89.71
54546;BME280;40444;45.184;9.850;2023-04-28T22:33:23;100913.09;;;16.43;90.40
54546;BME280;40444;45.184;9.850;2023-04-28T22:35:52;100918.97;;;16.38;91.61
54546;BME280;40444;45.184;9.850;2023-04-28T22:38:20;100911.53;;;16.32;91.83
54546;BME280;40444;45.184;9.850;2023-04-28T22:40:48;100917.28;;;16.29;92.14
54546;BME280;40444;45.184;9.850;2023-04-28T22:43:16;100916.59;;;16.27;92.46
54546;BME280;40444;45.184;9.850;2023-04-28T22:45:44;100913.06;;;16.27;92.66
54546;BME280;40444;45.184;9.850;2023-04-28T22:48:12;100917.63;;;16.26;93.40
54546;BME280;40444;45.184;9.850;2023-04-28T22:50:41;100915.94;;;16.25;93.64
54546;BME280;40444;45.184;9.850;2023-04-28T22:53:10;100916.94;;;16.24;93.81
54546;BME280;40444;45.184;9.850;2023-04-28T22:55:38;100907.97;;;16.24;93.59
54546;BME280;40444;45.184;9.850;2023-04-28T22:58:06;100910.03;;;16.22;93.58
54546;BME280;40444;45.184;9.850;2023-04-28T23:00:36;100910.34;;;16.18;93.97
54546;BME280;40444;45.184;9.850;2023-04-28T23:03:04;100898.88;;;16.16;94.48
54546;BME280;40444;45.184;9.850;2023-04-28T23:05:35;100896.47;;;16.13;95.95
54546;BME280;40444;45.184;9.850;2023-04-28T23:08:04;100892.59;;;16.08;95.57
54546;BME280;40444;45.184;9.850;2023-04-28T23:10:32;100885.47;;;16.07;94.94
54546;BME280;40444;45.184;9.850;2023-04-28T23:13:01;100879.22;;;16.06;95.32
54546;BME280;40444;45.184;9.850;2023-04-28T23:15:29;100876.69;;;16.05;95.98
54546;BME280;40444;45.184;9.850;2023-04-28T23:17:57;100874.84;;;16.05;96.88
54546;BME280;40444;45.184;9.850;2023-04-28T23:20:26;100858.44;;;16.07;97.26
54546;BME280;40444;45.184;9.850;2023-04-28T23:22:54;100853.91;;;16.07;97.25
54546;BME280;40444;45.184;9.850;2023-04-28T23:25:25;100862.16;;;16.06;96.75
54546;BME280;40444;45.184;9.850;2023-04-28T23:27:53;100873.16;;;16.04;96.28
54546;BME280;40444;45.184;9.850;2023-04-28T23:30:22;100865.53;;;16.00;96.55
54546;BME280;40444;45.184;9.850;2023-04-28T23:32:50;100873.47;;;15.93;96.63
54546;BME280;40444;45.184;9.850;2023-04-28T23:35:18;100882.03;;;15.80;96.45
54546;BME280;40444;45.184;9.850;2023-04-28T23:37:49;100886.06;;;15.68;97.01
54546;BME280;40444;45.184;9.850;2023-04-28T23:40:17;100869.09;;;15.58;98.04
54546;BME280;40444;45.184;9.850;2023-04-28T23:42:46;100877.50;;;15.47;99.50
54546;BME280;40444;45.184;9.850;2023-04-28T23:45:14;100868.88;;;15.43;100.00
54546;BME280;40444;45.184;9.850;2023-04-28T23:47:42;100854.84;;;15.39;100.00
54546;BME280;40444;45.184;9.850;2023-04-28T23:50:11;100854.72;;;15.41;100.00
54546;BME280;40444;45.184;9.850;2023-04-28T23:52:39;100852.69;;;15.43;100.00
54546;BME280;40444;45.184;9.850;2023-04-28T23:55:07;100847.28;;;15.43;100.00
54546;BME280;40444;45.184;9.850;2023-04-28T23:57:36;100844.75;;;15.41;100.00
